createdAt,value
2023-03-11T00:03:41.341Z,74.20
2023-03-11T00:08:41.324Z,72.53
2023-03-11T00:13:40.916Z,74.62
2023-03-11T00:18:39.980Z,75.33
2023-03-11T00:23:39.117Z,74.54
2023-03-11T00:28:38.209Z,75.05
2023-03-11T00:33:37.014Z,76.34
2023-03-11T00:38:36.576Z,77.81
2023-03-11T00:43:35.545Z,78.27
2023-03-11T00:48:35.562Z,77.43
2023-03-11T00:53:34.577Z,78.70
2023-03-11T00:58:33.418Z,78.58
2023-03-11T01:03:32.340Z,79.29
2023-03-11T01:08:31.872Z,80.25
2023-03-11T01:13:31.262Z,81.74
2023-03-11T01:18:30.226Z,81.72
2023-03-11T01:23:29.158Z,80.65
2023-03-11T01:28:28.115Z,81.65
2023-03-11T01:33:27.044Z,81.39
2023-03-11T01:38:25.803Z,80.45
2023-03-11T01:43:48.863Z,78.83
2023-03-11T01:48:54.332Z,79.06
2023-03-11T01:53:55.170Z,77.99
2023-03-11T01:58:56.070Z,77.86
2023-03-11T02:03:55.511Z,77.07
2023-03-11T02:08:55.318Z,76.03
2023-03-11T02:13:59.172Z,75.90
2023-03-11T02:18:59.405Z,77.76
2023-03-11T02:24:08.107Z,76.73
2023-03-11T02:29:10.027Z,76.98
2023-03-11T02:34:34.136Z,77.25
2023-03-11T02:39:41.978Z,77.19
2023-03-11T02:44:47.446Z,77.27
2023-03-11T02:49:46.392Z,77.59
2023-03-11T02:54:46.113Z,77.49
2023-03-11T02:59:45.005Z,77.50
2023-03-11T03:04:46.024Z,78.61
2023-03-11T03:09:45.363Z,79.53
2023-03-11T03:14:44.471Z,80.95
2023-03-11T03:19:43.296Z,82.68
2023-03-11T03:24:43.896Z,85.80
2023-03-11T03:29:42.931Z,83.31
2023-03-11T03:34:41.903Z,83.85
2023-03-11T03:39:41.450Z,87.52
2023-03-11T03:44:40.713Z,87.55
2023-03-11T03:49:40.713Z,83.44
2023-03-11T03:54:40.087Z,83.87
2023-03-11T03:59:39.766Z,83.17
2023-03-11T04:04:38.732Z,83.99
2023-03-11T04:09:41.908Z,83.54
2023-03-11T04:14:42.205Z,84.95
2023-03-11T04:19:41.470Z,85.48
2023-03-11T04:24:42.183Z,85.90
2023-03-11T04:29:41.223Z,87.71
2023-03-11T04:34:40.766Z,87.01
2023-03-11T04:39:40.057Z,86.04
2023-03-11T04:44:39.145Z,85.85
2023-03-11T04:49:38.445Z,85.93
2023-03-11T04:54:37.357Z,84.64
2023-03-11T04:59:36.439Z,83.92
2023-03-11T05:04:36.019Z,83.01
2023-03-11T05:09:35.469Z,82.59
2023-03-11T05:14:34.822Z,82.13
2023-03-11T05:19:36.559Z,81.14
2023-03-11T05:24:41.729Z,80.13
2023-03-11T05:29:40.652Z,80.12
2023-03-11T05:34:42.759Z,79.19
2023-03-11T05:39:41.797Z,77.37
2023-03-11T05:44:42.126Z,77.50
2023-03-11T05:49:41.519Z,77.44
2023-03-11T05:54:40.591Z,77.33
2023-03-11T05:59:39.505Z,77.03
2023-03-11T06:04:38.590Z,76.70
2023-03-11T06:09:39.429Z,76.53
2023-03-11T06:14:42.867Z,76.28
2023-03-11T06:19:41.710Z,76.14
2023-03-11T06:24:42.078Z,75.67
2023-03-11T06:29:41.832Z,75.88
2023-03-11T06:34:41.963Z,75.89
2023-03-11T06:39:41.015Z,75.00
2023-03-11T06:44:41.760Z,75.08
2023-03-11T06:49:42.654Z,74.64
2023-03-11T06:54:41.922Z,74.42
2023-03-11T06:59:41.049Z,75.04
2023-03-11T07:04:42.975Z,75.38
2023-03-11T07:09:41.915Z,75.04
2023-03-11T07:14:43.170Z,74.52
2023-03-11T07:19:42.007Z,73.96
2023-03-11T07:24:40.778Z,74.46
2023-03-11T07:29:39.505Z,74.97
2023-03-11T07:34:38.289Z,75.93
2023-03-11T07:39:37.036Z,87.26
2023-03-11T07:44:36.070Z,69.93
2023-03-11T07:49:35.800Z,70.97
2023-03-11T07:54:34.726Z,66.54
2023-03-11T07:59:33.467Z,72.11
2023-03-11T08:04:32.229Z,73.50
2023-03-11T08:09:31.176Z,73.85
2023-03-11T08:14:32.498Z,74.38
2023-03-11T08:19:31.723Z,74.44
2023-03-11T08:24:30.736Z,74.16
2023-03-11T08:29:29.697Z,74.28
2023-03-11T08:34:28.570Z,75.39
2023-03-11T08:39:27.591Z,75.10
2023-03-11T08:44:26.568Z,74.76
2023-03-11T08:49:25.911Z,74.52
2023-03-11T08:54:24.718Z,73.88
2023-03-11T08:59:23.604Z,73.54
2023-03-11T09:04:22.578Z,73.79
2023-03-11T09:09:21.301Z,73.30
2023-03-11T09:14:20.068Z,74.79
2023-03-11T09:19:19.031Z,74.24
2023-03-11T09:24:18.184Z,75.85
2023-03-11T09:29:17.069Z,76.50
2023-03-11T09:34:16.309Z,77.26
2023-03-11T09:39:15.299Z,77.80
2023-03-11T09:44:39.276Z,77.55
2023-03-11T09:49:53.767Z,77.50
2023-03-11T09:54:54.980Z,77.61
2023-03-11T09:59:55.057Z,76.97
2023-03-11T10:05:17.010Z,75.64
2023-03-11T10:10:17.696Z,75.15
2023-03-11T10:15:34.781Z,74.91
2023-03-11T10:20:56.110Z,73.97
2023-03-11T10:26:03.021Z,73.51
2023-03-11T10:31:29.557Z,74.14
2023-03-11T10:36:57.352Z,71.12
2023-03-11T10:42:00.565Z,70.01
2023-03-11T10:46:59.475Z,69.55
2023-03-11T10:51:58.769Z,70.16
2023-03-11T10:57:03.546Z,71.14
2023-03-11T11:02:26.117Z,68.29
2023-03-11T11:07:31.680Z,68.66
2023-03-11T11:12:30.515Z,68.77
2023-03-11T11:17:32.574Z,71.04
2023-03-11T11:22:32.269Z,71.94
2023-03-11T11:27:32.862Z,72.64
2023-03-11T11:32:31.806Z,73.49
2023-03-11T11:37:33.860Z,72.17
2023-03-11T11:42:32.818Z,70.54
2023-03-11T11:47:36.929Z,70.12
2023-03-11T11:52:46.241Z,69.60
2023-03-11T11:57:45.158Z,68.64
2023-03-11T12:03:16.129Z,67.52
2023-03-11T12:08:35.907Z,64.57
2023-03-11T12:13:40.450Z,64.46
2023-03-11T12:18:47.615Z,63.85
2023-03-11T12:24:06.710Z,64.46
2023-03-11T12:29:16.929Z,62.55
2023-03-11T12:34:20.358Z,64.36
2023-03-11T12:39:29.828Z,64.49
2023-03-11T12:44:30.831Z,63.59
2023-03-11T12:49:32.791Z,63.58
2023-03-11T12:54:35.744Z,64.05
2023-03-11T12:59:53.964Z,64.05
2023-03-11T13:05:11.468Z,64.20
2023-03-11T13:10:21.551Z,65.60
2023-03-11T13:15:20.395Z,66.73
2023-03-11T13:20:44.442Z,68.92
2023-03-11T13:25:52.094Z,69.80
2023-03-11T13:30:55.432Z,70.03
2023-03-11T13:36:10.380Z,69.09
2023-03-11T13:41:16.858Z,68.77
2023-03-11T13:46:41.131Z,69.67
2023-03-11T13:51:47.899Z,67.93
2023-03-11T13:56:57.872Z,68.32
2023-03-11T14:02:01.994Z,67.57
2023-03-11T14:07:11.758Z,65.71
2023-03-11T14:12:12.158Z,66.13
2023-03-11T14:17:18.245Z,65.12
2023-03-11T14:22:17.098Z,64.68
2023-03-11T14:27:17.211Z,63.22
2023-03-11T14:32:27.668Z,63.77
2023-03-11T14:37:36.262Z,63.59
2023-03-11T14:42:39.587Z,63.26
2023-03-11T14:47:51.597Z,63.08
2023-03-11T14:53:13.931Z,62.90
2023-03-11T14:58:31.139Z,63.18
2023-03-11T15:03:38.197Z,63.97
2023-03-11T15:08:50.371Z,62.43
2023-03-11T15:13:51.267Z,61.94
2023-03-11T15:18:50.227Z,60.82
2023-03-11T15:23:59.571Z,61.63
2023-03-11T15:29:01.777Z,61.42
2023-03-11T15:34:19.223Z,61.86
2023-03-11T15:39:28.948Z,60.68
2023-03-11T15:44:40.839Z,60.90
2023-03-11T15:49:39.914Z,60.85
2023-03-11T15:54:38.920Z,60.71
2023-03-11T15:59:38.348Z,59.51
2023-03-11T16:04:37.501Z,60.70
2023-03-11T16:09:36.621Z,60.49
2023-03-11T16:14:35.525Z,61.21
2023-03-11T16:19:34.330Z,61.95
2023-03-11T16:24:33.190Z,62.40
2023-03-11T16:29:33.697Z,62.73
2023-03-11T16:34:32.890Z,62.74
2023-03-11T16:39:31.937Z,62.02
2023-03-11T16:44:30.727Z,62.20
2023-03-11T16:49:29.579Z,63.09
2023-03-11T16:54:28.286Z,63.39
2023-03-11T16:59:27.291Z,63.04
2023-03-11T17:04:26.080Z,63.74
2023-03-11T17:09:24.917Z,63.90
2023-03-11T17:14:24.441Z,63.66
2023-03-11T17:19:24.284Z,64.57
2023-03-11T17:24:23.220Z,65.24
2023-03-11T17:29:22.138Z,66.05
2023-03-11T17:34:21.205Z,66.39
2023-03-11T17:39:20.345Z,66.59
2023-03-11T17:44:19.209Z,66.09
2023-03-11T17:49:18.044Z,65.94
2023-03-11T17:54:17.406Z,66.53
2023-03-11T17:59:17.950Z,66.08
2023-03-11T18:04:16.961Z,66.78
2023-03-11T18:09:17.070Z,66.13
2023-03-11T18:14:15.944Z,65.98
2023-03-11T18:19:14.814Z,65.89
2023-03-11T18:24:13.682Z,65.92
2023-03-11T18:29:12.734Z,66.40
2023-03-11T18:34:15.047Z,65.96
2023-03-11T18:39:13.897Z,65.53
2023-03-11T18:44:12.770Z,67.12
2023-03-11T18:49:13.020Z,66.87
2023-03-11T18:54:11.727Z,67.58
2023-03-11T18:59:12.205Z,67.31
2023-03-11T19:04:11.143Z,68.25
2023-03-11T19:09:10.998Z,68.35
2023-03-11T19:14:09.884Z,68.00
2023-03-11T19:19:10.813Z,68.85
2023-03-11T19:24:10.831Z,68.73
2023-03-11T19:29:09.547Z,68.82
2023-03-11T19:34:08.350Z,68.67
2023-03-11T19:39:07.933Z,68.51
2023-03-11T19:44:06.768Z,69.41
2023-03-11T19:49:05.538Z,69.15
2023-03-11T19:54:04.672Z,69.21
2023-03-11T19:59:04.261Z,71.58
2023-03-11T20:04:03.650Z,69.88
2023-03-11T20:09:02.700Z,71.16
2023-03-11T20:14:01.630Z,71.15
2023-03-11T20:19:00.373Z,69.99
2023-03-11T20:23:59.734Z,67.29
2023-03-11T20:28:59.016Z,71.18
2023-03-11T20:33:58.680Z,68.99
2023-03-11T20:38:57.504Z,70.20
2023-03-11T20:43:57.356Z,70.92
2023-03-11T20:48:56.403Z,69.56
2023-03-11T20:53:55.583Z,69.49
2023-03-11T20:58:56.241Z,68.98
2023-03-11T21:03:57.923Z,70.35
2023-03-11T21:08:59.312Z,70.94
2023-03-11T21:13:58.415Z,69.11
2023-03-11T21:18:57.365Z,69.12
2023-03-11T21:23:56.271Z,69.67
2023-03-11T21:28:56.018Z,69.87
2023-03-11T21:33:56.857Z,68.38
2023-03-11T21:38:55.905Z,68.74
2023-03-11T21:43:56.233Z,67.56
2023-03-11T21:48:55.537Z,88.20
2023-03-11T21:53:54.958Z,70.55
2023-03-11T21:58:54.180Z,64.82
2023-03-11T22:03:53.592Z,66.69
2023-03-11T22:08:53.196Z,65.72
2023-03-11T22:13:54.447Z,65.73
2023-03-11T22:18:53.458Z,66.75
2023-03-11T22:23:52.557Z,67.30
2023-03-11T22:28:51.689Z,69.33
2023-03-11T22:33:50.926Z,67.72
2023-03-11T22:38:50.003Z,69.01
2023-03-11T22:43:48.934Z,67.72
2023-03-11T22:48:48.513Z,67.73
2023-03-11T22:53:47.513Z,67.34
2023-03-11T22:58:46.743Z,66.71
2023-03-11T23:03:46.024Z,65.59
2023-03-11T23:08:45.824Z,67.71
2023-03-11T23:13:45.160Z,67.45
2023-03-11T23:18:45.486Z,66.71
2023-03-11T23:23:44.470Z,66.13
2023-03-11T23:28:43.787Z,66.60
2023-03-11T23:33:43.726Z,68.35
2023-03-11T23:38:43.029Z,67.08
2023-03-11T23:43:42.501Z,67.00
2023-03-11T23:48:41.509Z,66.05
2023-03-11T23:53:40.491Z,65.11
2023-03-11T23:58:39.533Z,66.97
